createdAt,value
2023-05-16T00:00:16.519Z,8.75
2023-05-16T00:01:18.292Z,8.23
2023-05-16T00:02:19.833Z,8.80
2023-05-16T00:03:21.620Z,8.77
2023-05-16T00:04:23.763Z,8.13
2023-05-16T00:05:25.742Z,9.02
2023-05-16T00:06:27.281Z,8.55
2023-05-16T00:07:28.806Z,9.18
2023-05-16T00:08:30.285Z,8.60
2023-05-16T00:09:31.764Z,8.70
2023-05-16T00:10:33.307Z,9.25
2023-05-16T00:11:35.001Z,8.73
2023-05-16T00:12:37.462Z,8.60
2023-05-16T00:13:42.329Z,8.90
2023-05-16T00:14:43.846Z,9.18
2023-05-16T00:15:45.661Z,9.85
2023-05-16T00:16:47.895Z,9.75
2023-05-16T00:17:50.064Z,9.15
2023-05-16T00:18:52.569Z,9.80
2023-05-16T00:19:58.219Z,10.25
2023-05-16T00:20:59.977Z,11.35
2023-05-16T00:22:01.821Z,10.02
2023-05-16T00:23:03.889Z,9.95
2023-05-16T00:24:05.697Z,11.00
2023-05-16T00:25:09.399Z,11.75
2023-05-16T00:26:11.063Z,11.18
2023-05-16T00:27:15.804Z,11.23
2023-05-16T00:28:17.318Z,11.35
2023-05-16T00:29:18.791Z,11.77
2023-05-16T00:30:20.380Z,14.75
2023-05-16T00:31:22.182Z,15.25
2023-05-16T00:32:26.469Z,15.10
2023-05-16T00:33:27.999Z,14.85
2023-05-16T00:34:29.788Z,14.73
2023-05-16T00:35:31.545Z,14.63
2023-05-16T00:36:33.006Z,14.02
2023-05-16T00:37:34.515Z,13.73
2023-05-16T00:38:36.093Z,14.93
2023-05-16T00:39:37.794Z,13.48
2023-05-16T00:40:39.346Z,15.60
2023-05-16T00:41:41.101Z,15.88
2023-05-16T00:42:42.896Z,14.68
2023-05-16T00:43:45.289Z,14.02
2023-05-16T00:44:47.992Z,16.13
2023-05-16T00:45:50.731Z,15.60
2023-05-16T00:46:52.565Z,16.75
2023-05-16T00:47:54.827Z,15.55
2023-05-16T00:48:56.418Z,16.70
2023-05-16T00:49:58.684Z,15.27
2023-05-16T00:51:01.791Z,14.48
2023-05-16T00:52:04.088Z,16.33
2023-05-16T00:53:05.887Z,15.70
2023-05-16T00:54:07.415Z,15.10
2023-05-16T00:55:10.783Z,14.73
2023-05-16T00:56:12.363Z,16.05
2023-05-16T00:57:14.102Z,15.20
2023-05-16T00:58:16.331Z,16.77
2023-05-16T00:59:17.880Z,16.85
2023-05-16T01:00:19.996Z,16.20
2023-05-16T01:01:24.083Z,16.52
2023-05-16T01:02:29.193Z,17.38
2023-05-16T01:03:31.676Z,15.90
2023-05-16T01:04:34.591Z,15.98
2023-05-16T01:05:36.173Z,16.52
2023-05-16T01:06:37.792Z,16.38
2023-05-16T01:07:40.662Z,16.67
2023-05-16T01:08:42.877Z,17.45
2023-05-16T01:09:44.425Z,17.35
2023-05-16T01:11:10.043Z,16.95
2023-05-16T01:12:38.272Z,17.38
2023-05-16T01:13:44.691Z,16.52
2023-05-16T01:15:06.756Z,17.77
2023-05-16T01:16:22.284Z,19.60
2023-05-16T01:17:33.809Z,18.75
2023-05-16T01:18:44.604Z,19.07
2023-05-16T01:20:02.044Z,19.85
2023-05-16T01:21:13.433Z,20.63
2023-05-16T01:22:21.658Z,21.30
2023-05-16T01:23:43.520Z,20.20
2023-05-16T01:25:10.103Z,19.55
2023-05-16T01:26:23.009Z,18.40
2023-05-16T01:27:26.301Z,17.95
2023-05-16T01:28:28.438Z,20.67
2023-05-16T01:29:29.946Z,18.67
2023-05-16T01:30:41.189Z,21.50
2023-05-16T01:31:43.224Z,22.98
2023-05-16T01:32:45.194Z,23.40
2023-05-16T01:33:47.334Z,20.63
2023-05-16T01:34:52.018Z,22.25
2023-05-16T01:36:02.522Z,23.38
2023-05-16T01:37:16.268Z,21.85
2023-05-16T01:38:26.914Z,22.35
2023-05-16T01:39:56.659Z,23.48
2023-05-16T01:41:25.090Z,23.83
2023-05-16T01:42:30.394Z,23.80
2023-05-16T01:43:40.128Z,24.50
2023-05-16T01:45:08.577Z,23.13
2023-05-16T01:46:15.108Z,22.67
2023-05-16T01:47:19.368Z,23.30
2023-05-16T01:48:37.285Z,24.83
2023-05-16T01:49:46.400Z,23.05
2023-05-16T01:50:54.296Z,23.55
2023-05-16T01:52:01.573Z,19.60
2023-05-16T01:53:15.042Z,24.77
2023-05-16T01:54:19.025Z,22.70
2023-05-16T01:55:39.269Z,25.95
2023-05-16T01:56:49.961Z,24.77
2023-05-16T01:57:52.480Z,25.25
2023-05-16T01:58:55.436Z,24.95
2023-05-16T01:59:58.987Z,24.10
2023-05-16T02:01:04.149Z,24.80
2023-05-16T02:02:05.832Z,24.30
2023-05-16T02:03:08.094Z,26.45
2023-05-16T02:04:09.821Z,26.08
2023-05-16T02:05:11.382Z,24.17
2023-05-16T02:06:12.916Z,25.85
2023-05-16T02:07:15.113Z,25.83
2023-05-16T02:08:16.862Z,25.83
2023-05-16T02:09:18.732Z,25.40
2023-05-16T02:10:20.407Z,25.42
2023-05-16T02:11:23.286Z,25.35
2023-05-16T02:12:25.487Z,26.80
2023-05-16T02:13:27.554Z,25.67
2023-05-16T02:14:29.450Z,26.65
2023-05-16T02:15:31.139Z,25.20
2023-05-16T02:16:33.976Z,26.92
2023-05-16T02:17:35.777Z,26.17
2023-05-16T02:18:37.328Z,27.52
2023-05-16T02:19:39.807Z,27.33
2023-05-16T02:20:41.749Z,26.90
2023-05-16T02:21:43.498Z,26.95
2023-05-16T02:22:47.769Z,28.17
2023-05-16T02:23:49.403Z,29.05
2023-05-16T02:24:50.896Z,26.92
2023-05-16T02:25:53.446Z,25.67
2023-05-16T02:26:57.238Z,28.70
2023-05-16T02:27:58.716Z,28.48
2023-05-16T02:29:00.310Z,28.63
2023-05-16T02:30:02.158Z,27.40
2023-05-16T02:31:04.451Z,29.40
2023-05-16T02:32:06.341Z,28.02
2023-05-16T02:33:07.870Z,29.27
2023-05-16T02:34:09.412Z,30.25
2023-05-16T02:35:11.805Z,28.55
2023-05-16T02:36:13.945Z,29.92
2023-05-16T02:37:17.425Z,29.88
2023-05-16T02:38:20.955Z,29.65
2023-05-16T02:39:23.353Z,30.10
2023-05-16T02:40:26.198Z,29.33
2023-05-16T02:41:27.860Z,30.15
2023-05-16T02:42:29.687Z,29.13
2023-05-16T02:43:31.208Z,30.08
2023-05-16T02:44:32.718Z,30.90
2023-05-16T02:45:34.273Z,29.63
2023-05-16T02:46:36.514Z,30.80
2023-05-16T02:47:38.938Z,29.50
2023-05-16T02:48:40.647Z,29.77
2023-05-16T02:49:42.641Z,32.40
2023-05-16T02:50:44.244Z,31.15
2023-05-16T02:51:45.808Z,31.60
2023-05-16T02:52:47.603Z,30.20
2023-05-16T02:53:49.298Z,32.58
2023-05-16T02:55:04.744Z,28.77
2023-05-16T02:56:12.589Z,32.05
2023-05-16T02:57:15.216Z,32.47
2023-05-16T02:58:16.714Z,31.85
2023-05-16T02:59:18.213Z,30.02
2023-05-16T03:00:20.106Z,31.33
2023-05-16T03:01:21.966Z,33.50
2023-05-16T03:02:23.741Z,30.58
2023-05-16T03:03:25.504Z,29.48
2023-05-16T03:04:27.132Z,29.38
2023-05-16T03:05:29.201Z,30.48
2023-05-16T03:06:31.424Z,32.05
2023-05-16T03:07:34.721Z,31.00
2023-05-16T03:08:39.338Z,32.03
2023-05-16T03:09:40.925Z,33.08
2023-05-16T03:10:42.677Z,32.80
2023-05-16T03:11:44.146Z,33.38
2023-05-16T03:12:46.416Z,32.25
2023-05-16T03:13:48.558Z,33.28
2023-05-16T03:14:51.442Z,33.53
2023-05-16T03:15:53.260Z,33.20
2023-05-16T03:16:54.814Z,32.45
2023-05-16T03:17:56.408Z,33.58
2023-05-16T03:18:58.427Z,33.78
2023-05-16T03:20:00.213Z,32.70
2023-05-16T03:21:03.376Z,33.30
2023-05-16T03:22:05.271Z,33.83
2023-05-16T03:23:09.421Z,33.83
2023-05-16T03:24:11.310Z,35.55
2023-05-16T03:25:12.915Z,32.90
2023-05-16T03:26:15.839Z,33.20
2023-05-16T03:27:17.307Z,30.95
2023-05-16T03:28:18.847Z,35.08
2023-05-16T03:29:20.349Z,34.70
2023-05-16T03:30:22.931Z,35.95
2023-05-16T03:31:24.568Z,34.90
2023-05-16T03:32:26.103Z,36.90
2023-05-16T03:33:27.827Z,34.40
2023-05-16T03:34:29.471Z,36.25
2023-05-16T03:35:35.090Z,36.95
2023-05-16T03:36:36.670Z,35.22
2023-05-16T03:37:39.294Z,35.10
2023-05-16T03:38:40.922Z,36.05
2023-05-16T03:39:42.454Z,36.10
2023-05-16T03:40:44.677Z,36.78
2023-05-16T03:41:46.332Z,36.80
2023-05-16T03:42:48.097Z,36.08
2023-05-16T03:43:49.842Z,35.47
2023-05-16T03:44:51.612Z,35.97
2023-05-16T03:45:53.205Z,36.10
2023-05-16T03:46:56.058Z,38.75
2023-05-16T03:47:58.107Z,36.72
2023-05-16T03:48:59.589Z,37.08
2023-05-16T03:50:01.139Z,37.67
2023-05-16T03:51:02.612Z,35.47
2023-05-16T03:52:05.729Z,35.75
2023-05-16T03:53:07.247Z,36.85
2023-05-16T03:54:08.670Z,33.33
2023-05-16T03:55:10.620Z,36.03
2023-05-16T03:56:12.142Z,37.88
2023-05-16T03:57:13.969Z,38.33
2023-05-16T03:58:16.503Z,36.20
2023-05-16T03:59:18.043Z,37.35
2023-05-16T04:00:19.592Z,36.00
2023-05-16T04:01:21.089Z,36.42
2023-05-16T04:02:22.718Z,36.92
2023-05-16T04:03:28.491Z,38.28
2023-05-16T04:04:30.255Z,37.13
2023-05-16T04:05:31.903Z,37.65
2023-05-16T04:06:34.331Z,39.17
2023-05-16T04:07:38.693Z,36.50
2023-05-16T04:08:41.038Z,38.25
2023-05-16T04:09:42.518Z,39.75
2023-05-16T04:10:43.963Z,38.15
2023-05-16T04:11:45.751Z,35.53
2023-05-16T04:12:47.305Z,34.33
2023-05-16T04:13:48.839Z,37.35
2023-05-16T04:14:50.408Z,37.38
2023-05-16T04:15:51.948Z,35.13
2023-05-16T04:16:53.537Z,36.40
2023-05-16T04:17:55.103Z,37.08
2023-05-16T04:18:57.191Z,37.58
2023-05-16T04:19:58.826Z,38.35
2023-05-16T04:21:00.691Z,37.50
2023-05-16T04:22:02.413Z,33.65
2023-05-16T04:23:03.968Z,34.50
2023-05-16T04:24:05.929Z,36.08
2023-05-16T04:25:08.127Z,37.38
2023-05-16T04:26:09.782Z,35.03
2023-05-16T04:27:12.100Z,35.42
2023-05-16T04:28:13.563Z,34.20
2023-05-16T04:29:14.997Z,33.55
2023-05-16T04:30:16.707Z,32.58
2023-05-16T04:31:18.328Z,34.85
2023-05-16T04:32:19.942Z,36.10
2023-05-16T04:33:21.459Z,34.20
2023-05-16T04:34:28.108Z,34.63
2023-05-16T04:35:29.826Z,31.88
2023-05-16T04:36:31.613Z,35.55
2023-05-16T04:37:33.125Z,36.45
2023-05-16T04:38:34.761Z,36.20
2023-05-16T04:39:36.942Z,34.25
2023-05-16T04:40:38.670Z,35.58
2023-05-16T04:41:40.194Z,34.08
2023-05-16T04:42:41.855Z,32.58
2023-05-16T04:43:44.478Z,35.05
2023-05-16T04:44:47.674Z,34.30
2023-05-16T04:45:49.210Z,34.55
2023-05-16T04:46:51.205Z,31.83
2023-05-16T04:47:53.220Z,33.40
2023-05-16T04:48:54.762Z,35.40
2023-05-16T04:49:56.252Z,35.20
2023-05-16T04:50:57.865Z,35.50
2023-05-16T04:51:59.336Z,33.95
2023-05-16T04:53:00.806Z,35.40
2023-05-16T04:54:02.327Z,34.28
2023-05-16T04:55:04.291Z,33.40
2023-05-16T04:56:06.071Z,32.40
2023-05-16T04:57:07.674Z,34.85
2023-05-16T04:58:09.257Z,32.25
2023-05-16T04:59:11.024Z,33.15
2023-05-16T05:00:13.303Z,32.17
2023-05-16T05:01:15.100Z,31.05
2023-05-16T05:02:16.653Z,31.80
2023-05-16T05:03:18.659Z,34.00
2023-05-16T05:04:20.498Z,33.65
2023-05-16T05:05:22.151Z,34.72
2023-05-16T05:06:23.709Z,33.22
2023-05-16T05:07:28.429Z,33.45
2023-05-16T05:08:29.959Z,32.67
2023-05-16T05:09:31.674Z,32.38
2023-05-16T05:10:33.133Z,31.80
2023-05-16T05:11:34.642Z,31.85
2023-05-16T05:12:36.842Z,33.28
2023-05-16T05:13:38.310Z,32.35
2023-05-16T05:14:39.878Z,32.40
2023-05-16T05:15:41.386Z,31.90
2023-05-16T05:16:42.845Z,32.95
2023-05-16T05:17:44.484Z,33.53
2023-05-16T05:18:46.100Z,31.85
2023-05-16T05:19:48.418Z,33.30
2023-05-16T05:20:50.734Z,33.10
2023-05-16T05:21:52.211Z,32.40
2023-05-16T05:22:53.674Z,32.40
2023-05-16T05:23:55.285Z,32.25
2023-05-16T05:24:56.804Z,31.85
2023-05-16T05:25:58.282Z,31.50
2023-05-16T05:26:59.858Z,30.25
2023-05-16T05:28:01.458Z,32.13
2023-05-16T05:29:05.701Z,32.10
2023-05-16T05:30:08.253Z,32.90
2023-05-16T05:31:09.985Z,32.88
2023-05-16T05:32:11.795Z,31.40
2023-05-16T05:33:16.375Z,33.28
2023-05-16T05:34:18.115Z,30.40
2023-05-16T05:35:19.563Z,33.08
2023-05-16T05:36:21.268Z,31.80
2023-05-16T05:37:22.746Z,31.27
2023-05-16T05:38:24.333Z,31.23
2023-05-16T05:39:26.307Z,32.85
2023-05-16T05:40:27.860Z,32.45
2023-05-16T05:41:29.676Z,31.65
2023-05-16T05:42:31.175Z,31.15
2023-05-16T05:43:32.848Z,29.33
2023-05-16T05:44:35.077Z,33.47
2023-05-16T05:45:37.519Z,31.90
2023-05-16T05:46:39.513Z,29.58
2023-05-16T05:47:41.324Z,31.13
2023-05-16T05:48:42.948Z,31.33
2023-05-16T05:49:44.522Z,31.35
2023-05-16T05:50:46.200Z,31.85
2023-05-16T05:51:47.726Z,29.67
2023-05-16T05:52:49.253Z,30.20
2023-05-16T05:53:50.702Z,31.10
2023-05-16T05:54:52.265Z,28.42
2023-05-16T05:55:53.846Z,31.30
2023-05-16T05:56:55.370Z,29.88
2023-05-16T05:57:56.854Z,31.70
2023-05-16T05:58:58.465Z,30.63
2023-05-16T05:59:59.924Z,31.63
2023-05-16T06:01:02.010Z,30.17
2023-05-16T06:02:03.936Z,28.13
2023-05-16T06:03:05.982Z,29.30
2023-05-16T06:04:08.008Z,31.05
2023-05-16T06:05:09.730Z,30.75
2023-05-16T06:06:11.338Z,30.33
2023-05-16T06:07:13.052Z,30.42
2023-05-16T06:08:15.115Z,30.17
2023-05-16T06:09:16.866Z,31.90
2023-05-16T06:10:18.386Z,28.92
2023-05-16T06:11:19.928Z,30.42
2023-05-16T06:12:21.498Z,29.45
2023-05-16T06:13:23.006Z,30.50
2023-05-16T06:14:24.441Z,30.20
2023-05-16T06:15:26.949Z,27.27
2023-05-16T06:16:28.817Z,30.40
2023-05-16T06:17:30.629Z,29.85
2023-05-16T06:18:32.212Z,28.75
2023-05-16T06:19:33.733Z,30.63
2023-05-16T06:20:35.219Z,27.35
2023-05-16T06:21:37.305Z,30.05
2023-05-16T06:22:39.078Z,29.30
2023-05-16T06:23:40.558Z,28.63
2023-05-16T06:24:42.126Z,27.85
2023-05-16T06:25:43.596Z,24.98
2023-05-16T06:26:49.575Z,27.58
2023-05-16T06:27:51.055Z,29.60
2023-05-16T06:28:52.542Z,27.77
2023-05-16T06:29:54.172Z,26.65
2023-05-16T06:30:55.865Z,27.45
2023-05-16T06:31:57.484Z,29.13
2023-05-16T06:32:59.065Z,28.45
2023-05-16T06:34:00.807Z,25.90
2023-05-16T06:35:02.321Z,26.45
2023-05-16T06:36:04.706Z,28.00
2023-05-16T06:37:06.322Z,26.80
2023-05-16T06:38:07.863Z,26.13
2023-05-16T06:39:09.346Z,26.83
2023-05-16T06:40:11.551Z,26.77
2023-05-16T06:41:13.100Z,24.88
2023-05-16T06:42:15.144Z,24.58
2023-05-16T06:43:17.750Z,24.80
2023-05-16T06:44:19.348Z,24.77
2023-05-16T06:45:20.992Z,25.00
2023-05-16T06:46:23.087Z,23.80
2023-05-16T06:47:24.960Z,24.35
2023-05-16T06:48:26.856Z,23.38
2023-05-16T06:49:28.650Z,22.70
2023-05-16T06:50:30.355Z,22.08
2023-05-16T06:51:31.885Z,22.33
2023-05-16T06:52:33.434Z,21.85
2023-05-16T06:53:34.953Z,23.08
2023-05-16T06:54:36.710Z,20.48
2023-05-16T06:55:38.388Z,22.65
2023-05-16T06:56:39.906Z,22.90
2023-05-16T06:57:41.519Z,22.13
2023-05-16T06:58:43.108Z,22.50
2023-05-16T06:59:44.663Z,20.95
2023-05-16T07:00:46.526Z,22.38
2023-05-16T07:01:48.127Z,20.25
2023-05-16T07:02:50.476Z,21.73
2023-05-16T07:03:52.466Z,21.10
2023-05-16T07:04:55.476Z,23.73
2023-05-16T07:05:58.236Z,24.20
2023-05-16T07:06:59.874Z,21.70
2023-05-16T07:08:01.629Z,21.48
2023-05-16T07:09:03.178Z,21.08
2023-05-16T07:10:05.293Z,20.52
2023-05-16T07:11:06.858Z,20.30
2023-05-16T07:12:08.698Z,21.30
2023-05-16T07:13:10.958Z,18.42
2023-05-16T07:14:12.890Z,20.15
2023-05-16T07:15:14.848Z,19.70
2023-05-16T07:16:16.441Z,20.13
2023-05-16T07:17:17.984Z,19.10
2023-05-16T07:18:19.645Z,18.38
2023-05-16T07:19:21.309Z,19.90
2023-05-16T07:20:23.218Z,19.05
2023-05-16T07:21:25.061Z,19.15
2023-05-16T07:22:26.632Z,19.88
2023-05-16T07:23:28.243Z,17.63
2023-05-16T07:24:29.813Z,18.23
2023-05-16T07:25:31.962Z,19.10
2023-05-16T07:26:33.478Z,19.13
2023-05-16T07:27:35.006Z,18.80
2023-05-16T07:28:36.602Z,20.20
2023-05-16T07:29:38.860Z,19.70
2023-05-16T07:30:40.420Z,19.58
2023-05-16T07:31:42.018Z,18.63
2023-05-16T07:32:43.713Z,18.83
2023-05-16T07:33:49.193Z,17.05
2023-05-16T07:34:50.878Z,18.48
2023-05-16T07:35:58.240Z,19.00
2023-05-16T07:37:07.657Z,18.45
2023-05-16T07:38:09.171Z,19.40
2023-05-16T07:39:10.726Z,18.05
2023-05-16T07:40:12.845Z,19.40
2023-05-16T07:41:14.659Z,18.05
2023-05-16T07:42:16.532Z,18.65
2023-05-16T07:43:18.164Z,18.65
2023-05-16T07:44:19.690Z,19.35
2023-05-16T07:45:21.379Z,18.35
2023-05-16T07:46:23.411Z,17.77
2023-05-16T07:47:25.365Z,19.52
2023-05-16T07:48:27.018Z,18.60
2023-05-16T07:49:28.577Z,18.75
2023-05-16T07:50:30.084Z,18.88
2023-05-16T07:51:31.980Z,18.92
2023-05-16T07:52:33.563Z,17.98
2023-05-16T07:53:35.100Z,17.60
2023-05-16T07:54:38.003Z,17.70
2023-05-16T07:55:41.653Z,16.88
2023-05-16T07:56:43.378Z,16.58
2023-05-16T07:57:44.955Z,16.50
2023-05-16T07:58:49.027Z,15.70
2023-05-16T07:59:52.375Z,15.82
2023-05-16T08:00:54.233Z,14.70
2023-05-16T08:01:56.534Z,14.43
2023-05-16T08:02:58.415Z,13.93
2023-05-16T08:04:00.508Z,15.18
2023-05-16T08:05:02.095Z,15.25
2023-05-16T08:06:03.803Z,13.67
2023-05-16T08:07:05.912Z,12.35
2023-05-16T08:08:07.742Z,12.18
2023-05-16T08:09:09.579Z,11.60
2023-05-16T08:10:13.319Z,10.73
2023-05-16T08:11:15.314Z,11.57
2023-05-16T08:12:16.946Z,11.20
2023-05-16T08:13:18.579Z,10.70
2023-05-16T08:14:20.090Z,11.65
2023-05-16T08:15:21.683Z,13.18
2023-05-16T08:16:23.466Z,13.30
2023-05-16T08:17:25.335Z,14.52
2023-05-16T08:18:27.242Z,13.52
2023-05-16T08:19:29.630Z,14.18
2023-05-16T08:20:31.197Z,14.82
2023-05-16T08:21:33.545Z,15.23
2023-05-16T08:22:35.371Z,14.98
2023-05-16T08:23:36.930Z,13.80
2023-05-16T08:24:38.526Z,14.48
2023-05-16T08:25:40.219Z,14.07
2023-05-16T08:26:41.791Z,15.93
2023-05-16T08:27:45.899Z,13.90
2023-05-16T08:28:47.808Z,14.30
2023-05-16T08:29:49.310Z,14.60
2023-05-16T08:30:51.034Z,13.93
2023-05-16T08:31:52.617Z,14.07
2023-05-16T08:32:54.301Z,14.20
2023-05-16T08:33:55.982Z,13.47
2023-05-16T08:34:57.500Z,14.95
2023-05-16T08:35:59.299Z,14.55
2023-05-16T08:37:01.083Z,14.63
2023-05-16T08:38:05.823Z,13.93
2023-05-16T08:39:07.714Z,14.23
2023-05-16T08:40:10.867Z,15.00
2023-05-16T08:41:12.885Z,15.25
2023-05-16T08:42:14.878Z,15.05
2023-05-16T08:43:16.797Z,15.80
2023-05-16T08:44:22.144Z,14.80
2023-05-16T08:45:24.595Z,15.65
2023-05-16T08:46:29.160Z,15.38
2023-05-16T08:47:32.191Z,14.45
2023-05-16T08:48:34.756Z,16.23
2023-05-16T08:49:39.249Z,15.55
2023-05-16T08:50:42.783Z,15.43
2023-05-16T08:51:49.221Z,16.97
2023-05-16T08:52:53.264Z,16.67
2023-05-16T08:54:01.434Z,15.75
2023-05-16T08:55:11.414Z,16.25
2023-05-16T08:56:14.607Z,15.98
2023-05-16T08:57:17.663Z,16.67
2023-05-16T08:58:19.750Z,16.45
2023-05-16T08:59:21.395Z,16.35
2023-05-16T09:00:23.776Z,15.73
2023-05-16T09:01:25.473Z,16.63
2023-05-16T09:02:28.567Z,16.10
2023-05-16T09:03:30.706Z,17.17
2023-05-16T09:04:32.556Z,16.00
2023-05-16T09:05:34.821Z,16.13
2023-05-16T09:06:36.978Z,16.30
2023-05-16T09:07:38.963Z,15.82
2023-05-16T09:08:41.860Z,16.85
2023-05-16T09:09:43.378Z,15.15
2023-05-16T09:10:44.935Z,16.85
2023-05-16T09:11:46.580Z,15.93
2023-05-16T09:12:48.153Z,16.13
2023-05-16T09:13:50.036Z,15.60
2023-05-16T09:14:52.284Z,15.95
2023-05-16T09:16:16.493Z,15.40
2023-05-16T09:17:20.534Z,16.55
2023-05-16T09:18:27.245Z,16.27
2023-05-16T09:19:37.146Z,15.45
2023-05-16T09:20:46.680Z,16.05
2023-05-16T09:21:48.332Z,15.15
2023-05-16T09:22:52.757Z,17.17
2023-05-16T09:23:54.973Z,15.88
2023-05-16T09:24:59.863Z,16.33
2023-05-16T09:26:01.584Z,16.20
2023-05-16T09:27:08.968Z,17.40
2023-05-16T09:28:12.243Z,17.15
2023-05-16T09:29:14.781Z,17.35
2023-05-16T09:30:19.153Z,16.95
2023-05-16T09:31:26.688Z,15.30
2023-05-16T09:32:28.525Z,15.50
2023-05-16T09:33:30.368Z,16.35
2023-05-16T09:34:32.388Z,15.50
2023-05-16T09:36:39.212Z,16.08
2023-05-16T09:37:48.650Z,16.83
2023-05-16T09:38:52.237Z,16.50
2023-05-16T09:39:55.016Z,16.00
2023-05-16T09:40:57.628Z,16.00
2023-05-16T09:41:59.733Z,16.00
2023-05-16T09:43:06.198Z,15.77
2023-05-16T09:44:10.898Z,15.75
2023-05-16T09:45:14.149Z,15.68
2023-05-16T09:46:16.361Z,16.15
2023-05-16T09:47:19.231Z,16.27
2023-05-16T09:48:21.827Z,15.80
2023-05-16T09:49:24.601Z,16.45
2023-05-16T09:50:26.397Z,17.00
2023-05-16T09:51:28.651Z,15.77
2023-05-16T09:52:30.480Z,14.75
2023-05-16T09:53:33.524Z,16.30
2023-05-16T09:54:35.589Z,16.45
2023-05-16T09:55:37.138Z,16.00
2023-05-16T09:56:50.042Z,16.83
2023-05-16T09:57:51.592Z,15.90
2023-05-16T09:58:53.486Z,15.38
2023-05-16T09:59:55.061Z,16.48
2023-05-16T10:00:58.092Z,15.52
2023-05-16T10:02:00.488Z,15.57
2023-05-16T10:03:05.160Z,15.50
2023-05-16T10:04:10.525Z,16.42
2023-05-16T10:05:12.185Z,15.70
2023-05-16T10:06:14.669Z,16.00
2023-05-16T10:07:17.479Z,15.52
2023-05-16T10:08:23.152Z,15.38
2023-05-16T10:09:25.315Z,15.10
2023-05-16T10:10:28.598Z,15.43
2023-05-16T10:11:31.697Z,14.35
2023-05-16T10:12:34.241Z,13.68
2023-05-16T10:13:36.721Z,14.07
2023-05-16T10:14:41.201Z,12.98
2023-05-16T10:15:43.287Z,14.23
2023-05-16T10:16:48.510Z,15.02
2023-05-16T10:17:54.946Z,14.05
2023-05-16T10:18:57.037Z,15.07
2023-05-16T10:20:02.030Z,15.23
2023-05-16T10:21:11.831Z,14.40
2023-05-16T10:22:14.149Z,15.55
2023-05-16T10:23:19.643Z,13.93
2023-05-16T10:24:29.141Z,14.73
2023-05-16T10:25:41.105Z,14.27
2023-05-16T10:26:43.000Z,14.38
2023-05-16T10:27:44.977Z,14.38
2023-05-16T10:28:47.644Z,14.98
2023-05-16T10:29:54.668Z,14.60
2023-05-16T10:30:57.487Z,15.30
2023-05-16T10:31:59.612Z,15.52
2023-05-16T10:33:02.158Z,16.45
2023-05-16T10:34:04.004Z,15.13
2023-05-16T10:35:06.282Z,15.90
2023-05-16T10:36:12.029Z,16.90
2023-05-16T10:37:13.651Z,16.88
2023-05-16T10:38:17.725Z,14.80
2023-05-16T10:39:20.035Z,17.67
2023-05-16T10:40:22.522Z,16.20
2023-05-16T10:41:25.085Z,16.67
2023-05-16T10:42:26.669Z,16.10
2023-05-16T10:43:31.197Z,16.30
2023-05-16T10:44:36.210Z,16.67
2023-05-16T10:45:44.277Z,16.73
2023-05-16T10:46:47.386Z,15.80
2023-05-16T10:47:56.788Z,16.38
2023-05-16T10:48:58.831Z,16.42
2023-05-16T10:50:00.590Z,16.75
2023-05-16T10:51:03.871Z,17.75
2023-05-16T10:52:08.203Z,17.73
2023-05-16T10:53:28.474Z,18.45
2023-05-16T10:54:40.413Z,16.85
2023-05-16T10:56:07.174Z,17.45
2023-05-16T10:57:12.067Z,17.15
2023-05-16T10:58:19.447Z,17.17
2023-05-16T10:59:25.994Z,15.88
2023-05-16T11:00:28.889Z,16.35
2023-05-16T11:01:36.310Z,16.20
2023-05-16T11:02:41.827Z,17.15
2023-05-16T11:03:59.317Z,16.27
2023-05-16T11:05:02.808Z,16.23
2023-05-16T11:06:05.891Z,16.20
2023-05-16T11:07:07.946Z,16.50
2023-05-16T11:08:09.461Z,15.25
2023-05-16T11:09:11.509Z,15.88
2023-05-16T11:10:16.796Z,15.93
2023-05-16T11:11:52.527Z,15.23
2023-05-16T11:12:55.541Z,15.32
2023-05-16T11:13:57.041Z,15.98
2023-05-16T11:14:58.879Z,16.25
2023-05-16T11:16:30.207Z,16.10
2023-05-16T11:17:41.119Z,15.40
2023-05-16T11:18:51.530Z,15.05
2023-05-16T11:19:59.355Z,15.02
2023-05-16T11:21:04.363Z,15.00
2023-05-16T11:22:11.717Z,15.57
2023-05-16T11:23:19.109Z,15.02
2023-05-16T11:24:32.102Z,15.90
2023-05-16T11:25:41.298Z,14.82
2023-05-16T11:26:43.288Z,14.37
2023-05-16T11:27:46.637Z,15.07
2023-05-16T11:28:52.179Z,15.93
2023-05-16T11:29:56.556Z,15.55
2023-05-16T11:31:00.090Z,14.50
2023-05-16T11:32:05.067Z,14.15
2023-05-16T11:33:07.448Z,14.77
2023-05-16T11:34:09.950Z,13.90
2023-05-16T11:35:15.088Z,13.80
2023-05-16T11:36:17.171Z,12.65
2023-05-16T11:37:20.210Z,14.15
2023-05-16T11:38:22.398Z,14.48
2023-05-16T11:39:25.175Z,13.07
2023-05-16T11:40:27.152Z,13.23
2023-05-16T11:41:28.925Z,11.82
2023-05-16T11:42:33.968Z,12.13
2023-05-16T11:43:43.705Z,11.55
2023-05-16T11:44:45.792Z,11.27
2023-05-16T11:45:54.502Z,11.52
2023-05-16T11:46:56.533Z,10.23
2023-05-16T11:48:02.701Z,11.07
2023-05-16T11:49:04.636Z,11.68
2023-05-16T11:50:13.913Z,10.57
2023-05-16T11:51:18.858Z,11.07
2023-05-16T11:52:21.577Z,10.35
2023-05-16T11:53:23.376Z,10.88
2023-05-16T11:54:25.612Z,10.85
2023-05-16T11:55:41.477Z,11.82
2023-05-16T11:56:44.147Z,11.38
2023-05-16T11:57:45.964Z,12.60
2023-05-16T11:58:47.813Z,11.07
2023-05-16T11:59:49.544Z,11.40
2023-05-16T12:00:51.648Z,10.80
2023-05-16T12:01:53.234Z,11.38
2023-05-16T12:03:01.366Z,10.95
2023-05-16T12:04:12.203Z,11.38
2023-05-16T12:05:15.364Z,10.40
2023-05-16T12:06:16.933Z,11.55
2023-05-16T12:07:18.634Z,11.73
2023-05-16T12:08:24.584Z,11.15
2023-05-16T12:09:26.463Z,10.90
2023-05-16T12:10:28.294Z,10.93
2023-05-16T12:11:30.607Z,10.50
2023-05-16T12:12:32.419Z,11.32
2023-05-16T12:13:34.340Z,11.13
2023-05-16T12:14:35.938Z,10.75
2023-05-16T12:15:37.535Z,11.07
2023-05-16T12:16:42.367Z,10.95
2023-05-16T12:17:44.379Z,11.02
2023-05-16T12:18:46.325Z,11.57
2023-05-16T12:19:48.433Z,10.52
2023-05-16T12:20:50.067Z,10.63
2023-05-16T12:21:54.916Z,9.45
2023-05-16T12:22:58.388Z,10.43
2023-05-16T12:24:00.351Z,11.13
2023-05-16T12:25:20.702Z,10.70
2023-05-16T12:26:27.063Z,10.67
2023-05-16T12:27:28.618Z,9.70
2023-05-16T12:28:34.774Z,9.80
2023-05-16T12:29:36.516Z,9.60
2023-05-16T12:30:41.805Z,8.32
2023-05-16T12:31:43.423Z,8.57
2023-05-16T12:32:45.642Z,8.48
2023-05-16T12:33:47.455Z,8.75
2023-05-16T12:34:53.350Z,8.90
2023-05-16T12:35:55.252Z,9.77
2023-05-16T12:36:56.986Z,8.77
2023-05-16T12:37:59.224Z,8.80
2023-05-16T12:39:03.869Z,8.27
2023-05-16T12:40:06.629Z,8.68
2023-05-16T12:41:08.319Z,8.48
2023-05-16T12:42:11.813Z,8.57
2023-05-16T12:43:17.523Z,8.77
2023-05-16T12:44:19.835Z,9.25
2023-05-16T12:45:27.824Z,7.45
2023-05-16T12:46:31.527Z,9.35
2023-05-16T12:47:38.666Z,8.57
2023-05-16T12:48:42.538Z,9.73
2023-05-16T12:49:46.067Z,9.68
2023-05-16T12:50:48.685Z,9.00
2023-05-16T12:51:55.487Z,8.90
2023-05-16T12:53:00.099Z,8.55
2023-05-16T12:55:13.113Z,9.00
2023-05-16T12:56:16.222Z,9.27
2023-05-16T12:57:17.778Z,8.63
2023-05-16T12:58:19.802Z,8.32
2023-05-16T12:59:21.436Z,8.57
2023-05-16T13:00:23.727Z,8.52
2023-05-16T13:01:25.550Z,9.35
2023-05-16T13:02:27.314Z,8.93
2023-05-16T13:03:29.036Z,8.70
2023-05-16T13:04:30.966Z,8.30
2023-05-16T13:05:32.546Z,9.43
2023-05-16T13:06:48.987Z,8.50
2023-05-16T13:07:56.375Z,8.48
2023-05-16T13:08:58.089Z,8.05
2023-05-16T13:09:59.685Z,7.97
2023-05-16T13:11:01.517Z,8.52
2023-05-16T13:12:03.082Z,8.10
2023-05-16T13:13:04.694Z,7.68
2023-05-16T13:14:06.354Z,8.27
2023-05-16T13:15:10.448Z,6.68
2023-05-16T13:16:12.127Z,5.90
2023-05-16T13:17:13.749Z,6.15
2023-05-16T13:18:15.324Z,5.72
2023-05-16T13:19:17.387Z,5.37
2023-05-16T13:20:20.206Z,5.10
2023-05-16T13:21:22.632Z,4.90
2023-05-16T13:22:24.199Z,5.07
2023-05-16T13:23:27.090Z,4.70
2023-05-16T13:24:28.669Z,5.80
2023-05-16T13:25:30.436Z,5.65
2023-05-16T13:26:32.241Z,5.68
2023-05-16T13:27:34.024Z,5.25
2023-05-16T13:28:36.371Z,5.68
2023-05-16T13:29:38.178Z,5.75
2023-05-16T13:30:39.690Z,5.97
2023-05-16T13:31:41.296Z,6.40
2023-05-16T13:32:42.889Z,6.28
2023-05-16T13:33:45.056Z,5.93
2023-05-16T13:34:46.620Z,6.22
2023-05-16T13:35:48.271Z,6.50
2023-05-16T13:36:54.289Z,6.47
2023-05-16T13:37:56.149Z,6.10
2023-05-16T13:38:57.648Z,5.95
2023-05-16T13:39:59.426Z,6.03
2023-05-16T13:41:01.087Z,6.45